sensor_id;sensor_type;location;lat;lon;timestamp;temperature;humidity
65582;DHT22;52231;40.090;18.348;2023-03-01T00:01:43;10.60;88.70
65582;DHT22;52231;40.090;18.348;2023-03-01T00:04:11;10.60;88.60
65582;DHT22;52231;40.090;18.348;2023-03-01T00:06:39;10.50;88.60
65582;DHT22;52231;40.090;18.348;2023-03-01T00:09:07;10.50;88.60
65582;DHT22;52231;40.090;18.348;2023-03-01T00:11:36;10.40;88.60
65582;DHT22;52231;40.090;18.348;2023-03-01T00:14:04;10.50;88.70
65582;DHT22;52231;40.090;18.348;2023-03-01T00:16:38;10.50;88.80
65582;DHT22;52231;40.090;18.348;2023-03-01T00:19:12;10.50;88.80
65582;DHT22;52231;40.090;18.348;2023-03-01T00:21:40;10.40;88.70
65582;DHT22;52231;40.090;18.348;2023-03-01T00:24:09;10.30;88.60
65582;DHT22;52231;40.090;18.348;2023-03-01T00:26:38;10.30;88.60
65582;DHT22;52231;40.090;18.348;2023-03-01T00:29:06;10.20;88.60
65582;DHT22;52231;40.090;18.348;2023-03-01T00:31:34;10.20;88.50
65582;DHT22;52231;40.090;18.348;2023-03-01T00:34:06;10.10;88.60
65582;DHT22;52231;40.090;18.348;2023-03-01T00:36:37;10.10;88.60
65582;DHT22;52231;40.090;18.348;2023-03-01T00:39:10;10.10;88.50
65582;DHT22;52231;40.090;18.348;2023-03-01T00:41:43;10.00;88.50
65582;DHT22;52231;40.090;18.348;2023-03-01T00:44:12;10.10;88.60
65582;DHT22;52231;40.090;18.348;2023-03-01T00:46:40;10.10;88.70
65582;DHT22;52231;40.090;18.348;2023-03-01T00:49:08;10.10;88.70
65582;DHT22;52231;40.090;18.348;2023-03-01T00:51:40;10.10;88.80
65582;DHT22;52231;40.090;18.348;2023-03-01T00:54:10;10.10;88.80
65582;DHT22;52231;40.090;18.348;2023-03-01T00:56:38;10.10;88.90
65582;DHT22;52231;40.090;18.348;2023-03-01T00:59:06;10.10;89.00
65582;DHT22;52231;40.090;18.348;2023-03-01T01:01:34;10.10;89.00
65582;DHT22;52231;40.090;18.348;2023-03-01T01:04:08;10.10;89.10
65582;DHT22;52231;40.090;18.348;2023-03-01T01:06:40;10.10;89.10
65582;DHT22;52231;40.090;18.348;2023-03-01T01:09:12;10.10;89.10
65582;DHT22;52231;40.090;18.348;2023-03-01T01:11:48;10.20;89.10
65582;DHT22;52231;40.090;18.348;2023-03-01T01:14:17;10.20;89.20
65582;DHT22;52231;40.090;18.348;2023-03-01T01:16:46;10.20;89.20
65582;DHT22;52231;40.090;18.348;2023-03-01T01:19:15;10.20;89.20
65582;DHT22;52231;40.090;18.348;2023-03-01T01:21:43;10.20;89.30
65582;DHT22;52231;40.090;18.348;2023-03-01T01:24:12;10.20;89.30
65582;DHT22;52231;40.090;18.348;2023-03-01T01:26:40;10.30;89.60
65582;DHT22;52231;40.090;18.348;2023-03-01T01:29:10;10.40;89.70
65582;DHT22;52231;40.090;18.348;2023-03-01T01:31:40;10.60;89.90
65582;DHT22;52231;40.090;18.348;2023-03-01T01:34:16;10.70;90.00
65582;DHT22;52231;40.090;18.348;2023-03-01T01:36:48;10.90;90.30
65582;DHT22;52231;40.090;18.348;2023-03-01T01:39:16;11.10;90.50
65582;DHT22;52231;40.090;18.348;2023-03-01T01:41:44;11.30;90.50
65582;DHT22;52231;40.090;18.348;2023-03-01T01:49:24;11.60;91.00
65582;DHT22;52231;40.090;18.348;2023-03-01T01:52:13;11.70;91.10
65582;DHT22;52231;40.090;18.348;2023-03-01T01:54:49;11.70;91.10
65582;DHT22;52231;40.090;18.348;2023-03-01T01:57:24;11.90;91.50
65582;DHT22;52231;40.090;18.348;2023-03-01T01:59:57;11.90;91.40
65582;DHT22;52231;40.090;18.348;2023-03-01T02:02:27;12.00;91.50
65582;DHT22;52231;40.090;18.348;2023-03-01T02:07:54;12.20;91.60
65582;DHT22;52231;40.090;18.348;2023-03-01T02:10:25;12.20;91.60
65582;DHT22;52231;40.090;18.348;2023-03-01T02:12:54;12.20;91.60
65582;DHT22;52231;40.090;18.348;2023-03-01T02:15:24;12.20;91.70
65582;DHT22;52231;40.090;18.348;2023-03-01T02:17:53;12.20;91.60
65582;DHT22;52231;40.090;18.348;2023-03-01T02:20:44;12.30;91.80
65582;DHT22;52231;40.090;18.348;2023-03-01T02:23:16;12.30;91.70
65582;DHT22;52231;40.090;18.348;2023-03-01T02:30:49;12.60;91.90
65582;DHT22;52231;40.090;18.348;2023-03-01T02:33:38;12.60;91.90
65582;DHT22;52231;40.090;18.348;2023-03-01T02:36:09;12.70;91.90
65582;DHT22;52231;40.090;18.348;2023-03-01T02:38:40;12.80;91.90
65582;DHT22;52231;40.090;18.348;2023-03-01T02:41:11;12.70;91.90
65582;DHT22;52231;40.090;18.348;2023-03-01T02:43:41;12.80;91.90
65582;DHT22;52231;40.090;18.348;2023-03-01T02:46:14;12.80;92.00
65582;DHT22;52231;40.090;18.348;2023-03-01T02:48:49;12.80;91.90
65582;DHT22;52231;40.090;18.348;2023-03-01T02:54:33;12.90;91.90
65582;DHT22;52231;40.090;18.348;2023-03-01T02:57:04;12.80;92.00
65582;DHT22;52231;40.090;18.348;2023-03-01T02:59:35;12.80;92.00
65582;DHT22;52231;40.090;18.348;2023-03-01T03:02:19;12.90;92.00
65582;DHT22;52231;40.090;18.348;2023-03-01T03:05:27;12.80;92.00
65582;DHT22;52231;40.090;18.348;2023-03-01T03:07:59;12.80;92.00
65582;DHT22;52231;40.090;18.348;2023-03-01T03:10:32;12.80;92.00
65582;DHT22;52231;40.090;18.348;2023-03-01T03:13:05;12.90;92.00
65582;DHT22;52231;40.090;18.348;2023-03-01T03:15:35;12.90;91.90
65582;DHT22;52231;40.090;18.348;2023-03-01T03:18:07;12.90;91.90
65582;DHT22;52231;40.090;18.348;2023-03-01T03:20:36;12.90;92.00
65582;DHT22;52231;40.090;18.348;2023-03-01T03:23:05;13.00;92.00
65582;DHT22;52231;40.090;18.348;2023-03-01T03:25:34;13.00;92.00
65582;DHT22;52231;40.090;18.348;2023-03-01T03:28:07;13.00;92.00
65582;DHT22;52231;40.090;18.348;2023-03-01T03:30:39;13.10;92.00
65582;DHT22;52231;40.090;18.348;2023-03-01T03:33:10;13.10;92.00
65582;DHT22;52231;40.090;18.348;2023-03-01T03:35:46;13.10;92.00
65582;DHT22;52231;40.090;18.348;2023-03-01T03:38:18;13.10;92.00
65582;DHT22;52231;40.090;18.348;2023-03-01T03:40:48;13.00;92.00
65582;DHT22;52231;40.090;18.348;2023-03-01T03:43:19;13.10;92.10
65582;DHT22;52231;40.090;18.348;2023-03-01T03:45:50;13.00;92.10
65582;DHT22;52231;40.090;18.348;2023-03-01T03:48:19;13.00;92.10
65582;DHT22;52231;40.090;18.348;2023-03-01T03:50:54;13.00;92.10
65582;DHT22;52231;40.090;18.348;2023-03-01T03:53:25;13.00;92.10
65582;DHT22;52231;40.090;18.348;2023-03-01T03:55:53;12.90;92.10
65582;DHT22;52231;40.090;18.348;2023-03-01T03:58:24;12.90;92.10
65582;DHT22;52231;40.090;18.348;2023-03-01T04:00:55;12.90;92.10
65582;DHT22;52231;40.090;18.348;2023-03-01T04:03:25;12.80;92.10
65582;DHT22;52231;40.090;18.348;2023-03-01T04:05:54;12.80;92.10
65582;DHT22;52231;40.090;18.348;2023-03-01T04:08:25;12.90;92.20
65582;DHT22;52231;40.090;18.348;2023-03-01T04:11:00;13.00;92.20
65582;DHT22;52231;40.090;18.348;2023-03-01T04:13:49;13.00;92.20
65582;DHT22;52231;40.090;18.348;2023-03-01T04:16:18;13.00;92.10
65582;DHT22;52231;40.090;18.348;2023-03-01T04:18:46;13.00;92.10
65582;DHT22;52231;40.090;18.348;2023-03-01T04:21:15;13.00;92.10
65582;DHT22;52231;40.090;18.348;2023-03-01T04:23:43;13.00;92.10
65582;DHT22;52231;40.090;18.348;2023-03-01T04:26:11;13.00;92.10
65582;DHT22;52231;40.090;18.348;2023-03-01T04:28:41;13.00;92.10
65582;DHT22;52231;40.090;18.348;2023-03-01T04:31:15;13.00;92.10
65582;DHT22;52231;40.090;18.348;2023-03-01T04:33:46;13.00;92.10
65582;DHT22;52231;40.090;18.348;2023-03-01T04:36:16;13.00;92.10
65582;DHT22;52231;40.090;18.348;2023-03-01T04:38:45;13.00;92.10
65582;DHT22;52231;40.090;18.348;2023-03-01T04:41:18;13.00;92.20
65582;DHT22;52231;40.090;18.348;2023-03-01T04:43:46;13.10;92.10
65582;DHT22;52231;40.090;18.348;2023-03-01T04:46:16;13.10;92.10
65582;DHT22;52231;40.090;18.348;2023-03-01T04:48:45;13.10;92.10
65582;DHT22;52231;40.090;18.348;2023-03-01T04:51:15;13.10;92.10
65582;DHT22;52231;40.090;18.348;2023-03-01T04:53:43;13.10;92.10
65582;DHT22;52231;40.090;18.348;2023-03-01T04:56:12;13.10;92.10
65582;DHT22;52231;40.090;18.348;2023-03-01T04:58:46;13.20;92.10
65582;DHT22;52231;40.090;18.348;2023-03-01T05:01:18;13.20;92.20
65582;DHT22;52231;40.090;18.348;2023-03-01T05:03:51;13.20;92.10
65582;DHT22;52231;40.090;18.348;2023-03-01T05:06:20;13.20;92.10
65582;DHT22;52231;40.090;18.348;2023-03-01T05:08:48;13.20;92.10
65582;DHT22;52231;40.090;18.348;2023-03-01T05:11:16;13.20;92.10
65582;DHT22;52231;40.090;18.348;2023-03-01T05:13:44;13.20;92.10
65582;DHT22;52231;40.090;18.348;2023-03-01T05:16:12;13.30;92.10
65582;DHT22;52231;40.090;18.348;2023-03-01T05:18:41;13.30;92.10
65582;DHT22;52231;40.090;18.348;2023-03-01T05:21:12;13.30;92.10
65582;DHT22;52231;40.090;18.348;2023-03-01T05:23:40;13.30;92.10
65582;DHT22;52231;40.090;18.348;2023-03-01T05:26:08;13.30;92.10
65582;DHT22;52231;40.090;18.348;2023-03-01T05:28:52;13.40;92.00
65582;DHT22;52231;40.090;18.348;2023-03-01T05:31:24;13.40;92.00
65582;DHT22;52231;40.090;18.348;2023-03-01T05:33:53;13.40;92.10
65582;DHT22;52231;40.090;18.348;2023-03-01T05:36:21;13.50;92.00
65582;DHT22;52231;40.090;18.348;2023-03-01T05:38:49;13.50;92.00
65582;DHT22;52231;40.090;18.348;2023-03-01T05:41:17;13.60;92.00
65582;DHT22;52231;40.090;18.348;2023-03-01T05:43:45;13.60;92.00
65582;DHT22;52231;40.090;18.348;2023-03-01T05:46:13;13.60;92.00
65582;DHT22;52231;40.090;18.348;2023-03-01T05:48:43;13.60;92.00
65582;DHT22;52231;40.090;18.348;2023-03-01T05:51:11;13.60;92.00
65582;DHT22;52231;40.090;18.348;2023-03-01T05:53:39;13.70;91.90
65582;DHT22;52231;40.090;18.348;2023-03-01T05:56:07;13.70;92.00
65582;DHT22;52231;40.090;18.348;2023-03-01T05:58:36;13.70;92.00
65582;DHT22;52231;40.090;18.348;2023-03-01T06:01:11;13.80;92.00
65582;DHT22;52231;40.090;18.348;2023-03-01T06:03:41;13.80;91.90
65582;DHT22;52231;40.090;18.348;2023-03-01T06:06:09;13.80;91.90
65582;DHT22;52231;40.090;18.348;2023-03-01T06:08:37;13.90;91.90
65582;DHT22;52231;40.090;18.348;2023-03-01T06:11:05;14.00;91.80
65582;DHT22;52231;40.090;18.348;2023-03-01T06:13:35;14.00;91.80
65582;DHT22;52231;40.090;18.348;2023-03-01T06:16:07;14.10;91.70
65582;DHT22;52231;40.090;18.348;2023-03-01T06:18:37;14.10;91.60
65582;DHT22;52231;40.090;18.348;2023-03-01T06:21:06;14.10;91.50
65582;DHT22;52231;40.090;18.348;2023-03-01T06:23:35;14.20;91.40
65582;DHT22;52231;40.090;18.348;2023-03-01T06:26:07;14.20;91.30
65582;DHT22;52231;40.090;18.348;2023-03-01T06:28:36;14.30;91.20
65582;DHT22;52231;40.090;18.348;2023-03-01T06:31:04;14.30;91.00
65582;DHT22;52231;40.090;18.348;2023-03-01T06:33:36;14.40;90.80
65582;DHT22;52231;40.090;18.348;2023-03-01T06:36:05;14.50;90.70
65582;DHT22;52231;40.090;18.348;2023-03-01T06:38:33;14.50;90.50
65582;DHT22;52231;40.090;18.348;2023-03-01T06:41:01;14.60;90.30
65582;DHT22;52231;40.090;18.348;2023-03-01T06:43:30;14.60;90.10
65582;DHT22;52231;40.090;18.348;2023-03-01T06:45:58;14.70;90.10
65582;DHT22;52231;40.090;18.348;2023-03-01T06:48:26;14.80;89.80
65582;DHT22;52231;40.090;18.348;2023-03-01T06:50:58;14.80;89.60
65582;DHT22;52231;40.090;18.348;2023-03-01T06:53:28;14.80;89.50
65582;DHT22;52231;40.090;18.348;2023-03-01T06:55:57;14.90;89.30
65582;DHT22;52231;40.090;18.348;2023-03-01T06:58:25;15.00;89.00
65582;DHT22;52231;40.090;18.348;2023-03-01T07:00:54;15.00;88.90
65582;DHT22;52231;40.090;18.348;2023-03-01T07:03:23;15.10;88.80
65582;DHT22;52231;40.090;18.348;2023-03-01T07:05:52;15.10;88.70
65582;DHT22;52231;40.090;18.348;2023-03-01T07:08:20;15.20;88.70
65582;DHT22;52231;40.090;18.348;2023-03-01T07:10:48;15.20;88.50
65582;DHT22;52231;40.090;18.348;2023-03-01T07:13:22;15.30;88.50
65582;DHT22;52231;40.090;18.348;2023-03-01T07:15:50;15.30;88.30
65582;DHT22;52231;40.090;18.348;2023-03-01T07:18:18;15.40;88.20
65582;DHT22;52231;40.090;18.348;2023-03-01T07:20:47;15.40;87.90
65582;DHT22;52231;40.090;18.348;2023-03-01T07:23:16;15.50;87.80
65582;DHT22;52231;40.090;18.348;2023-03-01T07:25:44;15.60;87.80
65582;DHT22;52231;40.090;18.348;2023-03-01T07:28:12;15.60;87.60
65582;DHT22;52231;40.090;18.348;2023-03-01T07:30:40;15.70;87.70
65582;DHT22;52231;40.090;18.348;2023-03-01T07:33:08;15.60;87.80
65582;DHT22;52231;40.090;18.348;2023-03-01T07:35:36;15.50;87.70
65582;DHT22;52231;40.090;18.348;2023-03-01T07:38:04;15.50;87.90
65582;DHT22;52231;40.090;18.348;2023-03-01T07:40:32;15.50;87.90
65582;DHT22;52231;40.090;18.348;2023-03-01T07:43:02;15.40;88.00
65582;DHT22;52231;40.090;18.348;2023-03-01T07:45:30;15.50;88.10
65582;DHT22;52231;40.090;18.348;2023-03-01T07:47:58;15.50;87.80
65582;DHT22;52231;40.090;18.348;2023-03-01T07:50:26;15.30;87.90
65582;DHT22;52231;40.090;18.348;2023-03-01T07:52:54;15.20;88.10
65582;DHT22;52231;40.090;18.348;2023-03-01T07:55:23;15.10;88.20
65582;DHT22;52231;40.090;18.348;2023-03-01T07:57:51;15.00;88.40
65582;DHT22;52231;40.090;18.348;2023-03-01T08:00:19;14.90;88.50
65582;DHT22;52231;40.090;18.348;2023-03-01T08:02:48;14.80;88.70
65582;DHT22;52231;40.090;18.348;2023-03-01T08:05:20;14.80;88.90
65582;DHT22;52231;40.090;18.348;2023-03-01T08:07:50;14.80;89.00
65582;DHT22;52231;40.090;18.348;2023-03-01T08:10:18;14.70;88.90
65582;DHT22;52231;40.090;18.348;2023-03-01T08:12:46;14.80;88.90
65582;DHT22;52231;40.090;18.348;2023-03-01T08:15:14;14.80;88.90
65582;DHT22;52231;40.090;18.348;2023-03-01T08:17:43;15.00;88.70
65582;DHT22;52231;40.090;18.348;2023-03-01T08:20:12;15.40;88.50
65582;DHT22;52231;40.090;18.348;2023-03-01T08:22:40;15.80;87.60
65582;DHT22;52231;40.090;18.348;2023-03-01T08:25:08;16.10;86.40
65582;DHT22;52231;40.090;18.348;2023-03-01T08:27:37;16.30;85.60
65582;DHT22;52231;40.090;18.348;2023-03-01T08:30:06;16.20;85.00
65582;DHT22;52231;40.090;18.348;2023-03-01T08:32:38;16.10;84.80
65582;DHT22;52231;40.090;18.348;2023-03-01T08:35:07;16.10;84.80
65582;DHT22;52231;40.090;18.348;2023-03-01T08:37:35;16.10;84.50
65582;DHT22;52231;40.090;18.348;2023-03-01T08:40:13;16.10;84.30
65582;DHT22;52231;40.090;18.348;2023-03-01T08:42:46;16.40;84.40
65582;DHT22;52231;40.090;18.348;2023-03-01T08:45:16;17.00;83.50
65582;DHT22;52231;40.090;18.348;2023-03-01T08:47:55;17.40;82.50
65582;DHT22;52231;40.090;18.348;2023-03-01T08:50:24;17.50;81.50
65582;DHT22;52231;40.090;18.348;2023-03-01T08:52:52;17.40;80.70
65582;DHT22;52231;40.090;18.348;2023-03-01T08:55:20;17.40;80.10
65582;DHT22;52231;40.090;18.348;2023-03-01T08:57:48;17.40;79.10
65582;DHT22;52231;40.090;18.348;2023-03-01T09:00:17;17.80;78.50
65582;DHT22;52231;40.090;18.348;2023-03-01T09:02:45;17.90;77.30
65582;DHT22;52231;40.090;18.348;2023-03-01T09:05:13;17.60;77.70
65582;DHT22;52231;40.090;18.348;2023-03-01T09:07:41;17.30;77.60
65582;DHT22;52231;40.090;18.348;2023-03-01T09:10:10;17.60;78.30
65582;DHT22;52231;40.090;18.348;2023-03-01T09:12:39;17.80;77.10
65582;DHT22;52231;40.090;18.348;2023-03-01T09:15:08;17.90;76.60
65582;DHT22;52231;40.090;18.348;2023-03-01T09:17:36;17.80;75.60
65582;DHT22;52231;40.090;18.348;2023-03-01T09:20:04;17.80;76.50
65582;DHT22;52231;40.090;18.348;2023-03-01T09:22:33;18.00;75.10
65582;DHT22;52231;40.090;18.348;2023-03-01T09:25:02;17.90;76.70
65582;DHT22;52231;40.090;18.348;2023-03-01T09:27:30;18.30;75.40
65582;DHT22;52231;40.090;18.348;2023-03-01T09:29:59;18.50;75.00
65582;DHT22;52231;40.090;18.348;2023-03-01T09:32:27;18.50;74.90
65582;DHT22;52231;40.090;18.348;2023-03-01T09:34:59;18.20;74.40
65582;DHT22;52231;40.090;18.348;2023-03-01T09:37:34;18.20;75.20
65582;DHT22;52231;40.090;18.348;2023-03-01T09:40:04;18.00;74.30
65582;DHT22;52231;40.090;18.348;2023-03-01T09:42:34;18.00;74.90
65582;DHT22;52231;40.090;18.348;2023-03-01T09:45:11;18.30;74.70
65582;DHT22;52231;40.090;18.348;2023-03-01T09:47:44;18.30;74.00
65582;DHT22;52231;40.090;18.348;2023-03-01T09:50:19;18.40;72.90
65582;DHT22;52231;40.090;18.348;2023-03-01T09:55:39;18.30;72.70
65582;DHT22;52231;40.090;18.348;2023-03-01T09:58:41;18.50;72.80
65582;DHT22;52231;40.090;18.348;2023-03-01T10:01:28;18.80;71.30
65582;DHT22;52231;40.090;18.348;2023-03-01T10:04:16;18.80;70.90
65582;DHT22;52231;40.090;18.348;2023-03-01T10:09:34;18.80;71.40
65582;DHT22;52231;40.090;18.348;2023-03-01T10:12:08;18.80;70.90
65582;DHT22;52231;40.090;18.348;2023-03-01T10:14:43;18.80;70.70
65582;DHT22;52231;40.090;18.348;2023-03-01T10:19:47;18.90;70.10
65582;DHT22;52231;40.090;18.348;2023-03-01T10:24:53;18.70;71.30
65582;DHT22;52231;40.090;18.348;2023-03-01T10:27:46;18.60;71.70
65582;DHT22;52231;40.090;18.348;2023-03-01T10:30:21;18.60;71.40
65582;DHT22;52231;40.090;18.348;2023-03-01T10:32:51;18.50;71.10
65582;DHT22;52231;40.090;18.348;2023-03-01T10:35:25;18.50;71.60
65582;DHT22;52231;40.090;18.348;2023-03-01T10:38:13;18.40;71.60
65582;DHT22;52231;40.090;18.348;2023-03-01T10:41:05;18.60;71.60
65582;DHT22;52231;40.090;18.348;2023-03-01T10:43:49;18.80;71.80
65582;DHT22;52231;40.090;18.348;2023-03-01T10:46:30;19.00;70.50
65582;DHT22;52231;40.090;18.348;2023-03-01T10:51:36;19.20;68.80
65582;DHT22;52231;40.090;18.348;2023-03-01T10:54:24;19.30;69.80
65582;DHT22;52231;40.090;18.348;2023-03-01T10:56:58;19.60;69.80
65582;DHT22;52231;40.090;18.348;2023-03-01T10:59:35;19.80;67.60
65582;DHT22;52231;40.090;18.348;2023-03-01T11:02:22;19.90;65.90
65582;DHT22;52231;40.090;18.348;2023-03-01T11:05:13;19.90;66.50
65582;DHT22;52231;40.090;18.348;2023-03-01T11:08:02;19.60;67.10
65582;DHT22;52231;40.090;18.348;2023-03-01T11:10:35;19.00;68.10
65582;DHT22;52231;40.090;18.348;2023-03-01T11:13:17;19.10;69.30
65582;DHT22;52231;40.090;18.348;2023-03-01T11:16:06;19.30;69.80
65582;DHT22;52231;40.090;18.348;2023-03-01T11:18:36;19.50;66.80
65582;DHT22;52231;40.090;18.348;2023-03-01T11:21:15;19.50;65.80
65582;DHT22;52231;40.090;18.348;2023-03-01T11:23:45;19.60;66.50
65582;DHT22;52231;40.090;18.348;2023-03-01T11:26:15;19.80;64.80
65582;DHT22;52231;40.090;18.348;2023-03-01T11:28:50;19.80;62.70
65582;DHT22;52231;40.090;18.348;2023-03-01T11:31:20;19.60;63.70
65582;DHT22;52231;40.090;18.348;2023-03-01T11:33:59;19.80;63.10
65582;DHT22;52231;40.090;18.348;2023-03-01T11:36:42;19.90;61.80
65582;DHT22;52231;40.090;18.348;2023-03-01T11:42:11;20.00;63.00
65582;DHT22;52231;40.090;18.348;2023-03-01T11:44:46;20.00;62.60
65582;DHT22;52231;40.090;18.348;2023-03-01T11:50:15;20.00;61.90
65582;DHT22;52231;40.090;18.348;2023-03-01T11:53:18;20.00;61.20
65582;DHT22;52231;40.090;18.348;2023-03-01T11:56:03;20.00;60.90
65582;DHT22;52231;40.090;18.348;2023-03-01T11:58:41;19.80;63.60
65582;DHT22;52231;40.090;18.348;2023-03-01T12:12:44;19.60;62.70
65582;DHT22;52231;40.090;18.348;2023-03-01T12:18:44;19.50;63.40
65582;DHT22;52231;40.090;18.348;2023-03-01T12:21:40;19.80;62.90
65582;DHT22;52231;40.090;18.348;2023-03-01T12:40:58;19.40;63.60
65582;DHT22;52231;40.090;18.348;2023-03-01T12:43:34;19.20;62.90
65582;DHT22;52231;40.090;18.348;2023-03-01T12:46:15;19.00;63.30
65582;DHT22;52231;40.090;18.348;2023-03-01T12:49:13;18.90;64.70
65582;DHT22;52231;40.090;18.348;2023-03-01T12:54:38;19.00;65.20
65582;DHT22;52231;40.090;18.348;2023-03-01T12:57:21;19.40;63.20
65582;DHT22;52231;40.090;18.348;2023-03-01T13:02:50;19.80;61.10
65582;DHT22;52231;40.090;18.348;2023-03-01T13:08:15;19.30;59.80
65582;DHT22;52231;40.090;18.348;2023-03-01T13:11:17;19.10;58.30
65582;DHT22;52231;40.090;18.348;2023-03-01T13:13:47;18.80;57.50
65582;DHT22;52231;40.090;18.348;2023-03-01T13:16:40;18.70;60.00
65582;DHT22;52231;40.090;18.348;2023-03-01T13:19:21;18.50;59.10
65582;DHT22;52231;40.090;18.348;2023-03-01T13:22:33;18.60;59.60
65582;DHT22;52231;40.090;18.348;2023-03-01T13:25:18;18.60;61.50
65582;DHT22;52231;40.090;18.348;2023-03-01T13:27:47;18.50;61.20
65582;DHT22;52231;40.090;18.348;2023-03-01T13:30:40;18.40;61.70
65582;DHT22;52231;40.090;18.348;2023-03-01T13:35:58;18.30;62.00
65582;DHT22;52231;40.090;18.348;2023-03-01T13:38:46;18.30;62.50
65582;DHT22;52231;40.090;18.348;2023-03-01T13:41:24;18.30;63.70
65582;DHT22;52231;40.090;18.348;2023-03-01T13:50:00;18.40;63.20
65582;DHT22;52231;40.090;18.348;2023-03-01T13:52:45;18.20;61.80
65582;DHT22;52231;40.090;18.348;2023-03-01T13:57:56;18.20;61.70
65582;DHT22;52231;40.090;18.348;2023-03-01T14:00:32;17.90;61.80
65582;DHT22;52231;40.090;18.348;2023-03-01T14:03:26;17.80;63.90
65582;DHT22;52231;40.090;18.348;2023-03-01T14:06:04;17.70;65.10
65582;DHT22;52231;40.090;18.348;2023-03-01T14:08:48;17.60;64.80
65582;DHT22;52231;40.090;18.348;2023-03-01T14:14:10;17.30;67.20
65582;DHT22;52231;40.090;18.348;2023-03-01T14:17:19;17.30;67.50
65582;DHT22;52231;40.090;18.348;2023-03-01T14:19:57;17.30;67.70
65582;DHT22;52231;40.090;18.348;2023-03-01T14:22:29;17.30;68.00
65582;DHT22;52231;40.090;18.348;2023-03-01T14:25:03;17.30;68.20
65582;DHT22;52231;40.090;18.348;2023-03-01T14:27:39;17.30;68.60
65582;DHT22;52231;40.090;18.348;2023-03-01T14:30:26;17.30;68.50
65582;DHT22;52231;40.090;18.348;2023-03-01T14:32:57;17.30;68.70
65582;DHT22;52231;40.090;18.348;2023-03-01T14:35:36;17.30;68.70
65582;DHT22;52231;40.090;18.348;2023-03-01T14:38:04;17.20;68.60
65582;DHT22;52231;40.090;18.348;2023-03-01T14:40:36;17.10;68.90
65582;DHT22;52231;40.090;18.348;2023-03-01T14:43:11;17.10;68.40
65582;DHT22;52231;40.090;18.348;2023-03-01T14:45:48;17.10;68.50
65582;DHT22;52231;40.090;18.348;2023-03-01T14:48:17;17.00;68.60
65582;DHT22;52231;40.090;18.348;2023-03-01T14:50:47;17.00;68.80
65582;DHT22;52231;40.090;18.348;2023-03-01T14:53:23;17.00;68.90
65582;DHT22;52231;40.090;18.348;2023-03-01T14:55:54;17.00;69.00
65582;DHT22;52231;40.090;18.348;2023-03-01T14:58:24;17.00;69.50
65582;DHT22;52231;40.090;18.348;2023-03-01T15:00:59;16.90;68.90
65582;DHT22;52231;40.090;18.348;2023-03-01T15:03:38;16.80;67.30
65582;DHT22;52231;40.090;18.348;2023-03-01T15:06:09;16.80;68.00
65582;DHT22;52231;40.090;18.348;2023-03-01T15:08:47;16.60;68.60
65582;DHT22;52231;40.090;18.348;2023-03-01T15:11:27;16.50;69.60
65582;DHT22;52231;40.090;18.348;2023-03-01T15:13:57;16.50;69.80
65582;DHT22;52231;40.090;18.348;2023-03-01T15:16:35;16.70;70.10
65582;DHT22;52231;40.090;18.348;2023-03-01T15:19:17;16.60;70.30
65582;DHT22;52231;40.090;18.348;2023-03-01T15:21:48;16.60;70.40
65582;DHT22;52231;40.090;18.348;2023-03-01T15:24:23;16.60;69.50
65582;DHT22;52231;40.090;18.348;2023-03-01T15:27:00;16.60;68.50
65582;DHT22;52231;40.090;18.348;2023-03-01T15:29:35;16.50;68.70
65582;DHT22;52231;40.090;18.348;2023-03-01T15:34:57;16.30;68.70
65582;DHT22;52231;40.090;18.348;2023-03-01T15:37:46;16.30;69.10
65582;DHT22;52231;40.090;18.348;2023-03-01T15:40:27;16.10;70.10
65582;DHT22;52231;40.090;18.348;2023-03-01T15:43:05;16.10;70.20
65582;DHT22;52231;40.090;18.348;2023-03-01T15:45:34;16.00;71.50
65582;DHT22;52231;40.090;18.348;2023-03-01T15:48:15;15.90;71.80
65582;DHT22;52231;40.090;18.348;2023-03-01T15:50:54;15.80;71.30
65582;DHT22;52231;40.090;18.348;2023-03-01T15:53:23;15.80;71.90
65582;DHT22;52231;40.090;18.348;2023-03-01T15:55:51;15.80;72.70
65582;DHT22;52231;40.090;18.348;2023-03-01T15:58:24;15.80;73.10
65582;DHT22;52231;40.090;18.348;2023-03-01T16:00:52;15.70;72.80
65582;DHT22;52231;40.090;18.348;2023-03-01T16:03:28;15.70;72.30
65582;DHT22;52231;40.090;18.348;2023-03-01T16:06:02;15.70;72.40
65582;DHT22;52231;40.090;18.348;2023-03-01T16:08:31;15.70;72.80
65582;DHT22;52231;40.090;18.348;2023-03-01T16:10:59;15.60;73.20
65582;DHT22;52231;40.090;18.348;2023-03-01T16:13:31;15.60;73.50
65582;DHT22;52231;40.090;18.348;2023-03-01T16:16:00;15.60;73.20
65582;DHT22;52231;40.090;18.348;2023-03-01T16:18:28;15.60;72.60
65582;DHT22;52231;40.090;18.348;2023-03-01T16:20:57;15.60;72.30
65582;DHT22;52231;40.090;18.348;2023-03-01T16:23:28;15.60;72.10
65582;DHT22;52231;40.090;18.348;2023-03-01T16:26:00;15.60;70.80
65582;DHT22;52231;40.090;18.348;2023-03-01T16:28:29;15.50;70.70
65582;DHT22;52231;40.090;18.348;2023-03-01T16:30:57;15.50;70.70
65582;DHT22;52231;40.090;18.348;2023-03-01T16:33:26;15.40;71.40
65582;DHT22;52231;40.090;18.348;2023-03-01T16:35:54;15.40;72.20
65582;DHT22;52231;40.090;18.348;2023-03-01T16:38:23;15.30;73.40
65582;DHT22;52231;40.090;18.348;2023-03-01T16:40:52;15.30;75.00
65582;DHT22;52231;40.090;18.348;2023-03-01T16:43:21;15.10;75.90
65582;DHT22;52231;40.090;18.348;2023-03-01T16:45:50;14.90;76.60
65582;DHT22;52231;40.090;18.348;2023-03-01T16:48:19;14.80;76.80
65582;DHT22;52231;40.090;18.348;2023-03-01T16:51:00;14.60;74.50
65582;DHT22;52231;40.090;18.348;2023-03-01T16:53:30;14.50;73.90
65582;DHT22;52231;40.090;18.348;2023-03-01T16:55:59;14.40;74.10
65582;DHT22;52231;40.090;18.348;2023-03-01T16:58:28;14.30;74.50
65582;DHT22;52231;40.090;18.348;2023-03-01T17:01:14;14.30;74.90
65582;DHT22;52231;40.090;18.348;2023-03-01T17:03:45;14.20;75.40
65582;DHT22;52231;40.090;18.348;2023-03-01T17:06:21;14.20;75.70
65582;DHT22;52231;40.090;18.348;2023-03-01T17:08:52;14.10;75.90
65582;DHT22;52231;40.090;18.348;2023-03-01T17:11:21;14.10;76.00
65582;DHT22;52231;40.090;18.348;2023-03-01T17:13:49;14.00;76.10
65582;DHT22;52231;40.090;18.348;2023-03-01T17:16:19;13.90;76.20
65582;DHT22;52231;40.090;18.348;2023-03-01T17:18:49;13.90;76.60
65582;DHT22;52231;40.090;18.348;2023-03-01T17:21:18;13.80;76.80
65582;DHT22;52231;40.090;18.348;2023-03-01T17:23:47;13.70;77.20